Time;durP1;ratioP1;P1;durP2;ratioP2;P2;SDS_P1;SDS_P2;PMS_P1;PMS_P2;Temp;Humidity;BMP_temperature;BMP_pressure;BME280_temperature;BME280_humidity;BME280_pressure;Samples;Min_cycle;Max_cycle;Signal;HPM_P1;HPM_P2
2022/08/09 00:01:03;;;;;;;5.80;3.83;;;;;;;22.24;100.00;100206.26;1648333;85;21053;-65
2022/08/09 00:03:31;;;;;;;4.55;4.12;;;;;;;22.24;100.00;100201.23;1649172;85;21507;-65
2022/08/09 00:06:02;;;;;;;9.85;3.65;;;;;;;22.19;100.00;100198.77;1648581;85;21057;-66
2022/08/09 00:08:31;;;;;;;7.50;4.22;;;;;;;22.10;100.00;100191.47;1609092;87;21770;-64
2022/08/09 00:11:03;;;;;;;5.62;4.65;;;;;;;22.03;100.00;100196.17;1611103;87;28700;-65
2022/08/09 00:13:32;;;;;;;6.12;3.75;;;;;;;22.00;100.00;100189.34;1585855;89;21079;-65
2022/08/09 00:16:00;;;;;;;4.80;3.72;;;;;;;21.97;100.00;100197.13;1612854;87;21110;-66
2022/08/09 00:18:27;;;;;;;6.55;3.05;;;;;;;21.98;100.00;100197.33;1610738;87;21102;-65
2022/08/09 00:20:54;;;;;;;5.83;3.47;;;;;;;22.00;100.00;100197.17;1610889;87;21108;-68
2022/08/09 00:23:23;;;;;;;7.97;3.77;;;;;;;22.06;100.00;100199.02;1610867;87;21090;-66
2022/08/09 00:25:50;;;;;;;7.35;3.27;;;;;;;22.12;100.00;100198.09;1586644;87;21079;-64
2022/08/09 00:28:22;;;;;;;8.75;3.70;;;;;;;22.17;100.00;100196.94;1609923;87;21066;-65
2022/08/09 00:30:52;;;;;;;6.55;3.50;;;;;;;22.26;100.00;100197.45;1611583;87;21085;-65
2022/08/09 00:33:20;;;;;;;4.92;3.00;;;;;;;22.27;100.00;100190.64;1611005;87;21147;-65
2022/08/09 00:35:48;;;;;;;4.90;2.90;;;;;;;22.32;100.00;100192.28;1611560;87;21066;-67
2022/08/09 00:38:18;;;;;;;4.10;3.00;;;;;;;22.37;100.00;100190.53;1610421;87;21085;-67
2022/08/09 00:40:46;;;;;;;6.35;3.55;;;;;;;22.37;100.00;100188.54;1608425;87;21560;-68
2022/08/09 00:43:13;;;;;;;6.72;4.10;;;;;;;22.35;100.00;100188.11;1611967;87;21062;-67
2022/08/09 00:45:41;;;;;;;5.85;3.65;;;;;;;22.26;100.00;100187.62;1604652;88;21662;-67
2022/08/09 00:48:14;;;;;;;5.42;3.85;;;;;;;22.37;100.00;100182.92;1609405;87;21095;-65
2022/08/09 00:50:44;;;;;;;6.58;3.83;;;;;;;22.41;100.00;100182.97;1588534;89;21106;-65
2022/08/09 00:53:11;;;;;;;4.53;3.58;;;;;;;22.39;100.00;100181.13;1615654;87;21035;-67
2022/08/09 00:55:40;;;;;;;6.10;3.87;;;;;;;22.28;100.00;100186.63;1574519;89;21026;-67
2022/08/09 00:58:09;;;;;;;5.28;3.08;;;;;;;22.32;100.00;100188.89;1615524;87;22244;-65
2022/08/09 01:00:37;;;;;;;4.17;3.55;;;;;;;22.31;100.00;100189.27;1608048;87;21106;-69
2022/08/09 01:03:31;;;;;;;3.62;3.30;;;;;;;22.32;100.00;100187.48;1608206;87;21039;-67
2022/08/09 01:06:27;;;;;;;5.37;3.40;;;;;;;22.37;100.00;100191.94;1612366;87;21082;-73
2022/08/09 01:09:37;;;;;;;5.90;3.87;;;;;;;22.44;100.00;100194.00;1653291;85;21112;-70
2022/08/09 01:12:38;;;;;;;7.55;3.15;;;;;;;22.44;100.00;100199.62;1654528;85;21625;-68
2022/08/09 01:15:09;;;;;;;7.03;4.00;;;;;;;22.40;100.00;100198.17;1647416;85;21017;-65
2022/08/09 01:17:52;;;;;;;4.30;3.90;;;;;;;22.38;100.00;100199.18;1651329;85;20969;-64
2022/08/09 01:20:38;;;;;;;8.13;3.70;;;;;;;22.37;100.00;100191.94;1659925;85;21100;-66
2022/08/09 01:23:38;;;;;;;6.72;3.22;;;;;;;22.33;100.00;100198.91;1637591;86;21010;-68
2022/08/09 01:26:28;;;;;;;4.72;3.87;;;;;;;22.32;100.00;100197.30;1654353;85;21148;-67
2022/08/09 01:28:58;;;;;;;8.08;3.70;;;;;;;22.32;100.00;100193.09;1654321;85;21549;-68
2022/08/09 01:31:27;;;;;;;3.98;3.52;;;;;;;22.35;100.00;100190.92;1651630;85;21079;-68
2022/08/09 01:33:55;;;;;;;6.65;4.08;;;;;;;22.34;100.00;100183.70;1654386;85;21521;-65
2022/08/09 01:36:25;;;;;;;4.30;3.90;;;;;;;22.33;100.00;100182.06;1653870;85;21600;-65
2022/08/09 01:38:53;;;;;;;6.03;3.90;;;;;;;22.19;100.00;100186.14;1658836;85;21273;-68
2022/08/09 01:41:36;;;;;;;4.95;3.15;;;;;;;22.06;100.00;100187.80;1653926;85;21100;-66
2022/08/09 01:44:04;;;;;;;5.12;3.42;;;;;;;22.00;100.00;100192.96;1654477;85;21089;-66
2022/08/09 01:46:43;;;;;;;6.75;3.02;;;;;;;22.10;100.00;100199.06;1655547;85;21056;-66
2022/08/09 01:49:18;;;;;;;3.70;3.35;;;;;;;22.15;100.00;100201.53;1654281;85;21073;-70
2022/08/09 01:51:52;;;;;;;4.62;3.45;;;;;;;22.17;100.00;100193.55;1632853;85;21108;-67
2022/08/09 01:54:19;;;;;;;6.62;3.60;;;;;;;22.21;100.00;100196.39;1657646;85;21100;-66
2022/08/09 01:56:52;;;;;;;4.15;3.37;;;;;;;22.22;100.00;100203.61;1654186;85;21077;-70
2022/08/09 01:59:20;;;;;;;4.08;3.67;;;;;;;22.26;100.00;100200.26;1648626;85;21082;-68
2022/08/09 02:01:49;;;;;;;6.15;3.45;;;;;;;22.29;100.00;100206.50;1654535;85;21117;-69
2022/08/09 02:04:25;;;;;;;4.03;3.15;;;;;;;22.31;100.00;100199.91;1648340;85;21118;-67
2022/08/09 02:07:10;;;;;;;3.12;2.83;;;;;;;22.30;100.00;100198.87;1618574;85;21040;-67
2022/08/09 02:09:57;;;;;;;7.45;3.08;;;;;;;22.30;100.00;100201.09;1634607;86;21191;-66
2022/08/09 02:12:27;;;;;;;3.65;2.70;;;;;;;22.32;100.00;100192.28;1634777;86;21072;-65
2022/08/09 02:14:54;;;;;;;5.20;2.90;;;;;;;22.36;100.00;100200.16;1691602;83;21083;-65
2022/08/09 02:17:27;;;;;;;3.17;2.40;;;;;;;22.40;100.00;100188.97;1687674;83;21206;-66
2022/08/09 02:19:55;;;;;;;2.40;2.20;;;;;;;22.44;100.00;100189.80;1687556;83;21537;-66
2022/08/09 02:22:38;;;;;;;2.83;2.25;;;;;;;22.45;100.00;100192.83;1687923;83;21052;-67
2022/08/09 02:25:10;;;;;;;2.15;1.95;;;;;;;22.41;100.00;100188.58;1691161;82;21080;-66
2022/08/09 02:27:39;;;;;;;1.80;1.70;;;;;;;22.40;100.00;100188.97;1690393;83;21041;-66
2022/08/09 02:30:09;;;;;;;2.17;1.98;;;;;;;22.38;100.00;100181.72;1675643;84;21869;-68
2022/08/09 02:32:44;;;;;;;3.08;1.80;;;;;;;22.33;100.00;100191.89;1690149;83;21057;-67
2022/08/09 02:35:22;;;;;;;2.33;1.90;;;;;;;22.39;100.00;100190.95;1683277;83;21083;-65
2022/08/09 02:37:55;;;;;;;4.55;2.17;;;;;;;22.43;100.00;100192.41;1688729;83;21088;-70
2022/08/09 02:40:23;;;;;;;2.00;1.67;;;;;;;22.40;100.00;100191.78;1685873;83;21036;-65
2022/08/09 02:42:53;;;;;;;2.55;1.57;;;;;;;22.37;100.00;100195.56;1700201;82;21120;-68
2022/08/09 02:45:30;;;;;;;2.15;1.77;;;;;;;22.32;100.00;100195.91;1700221;83;21105;-68
2022/08/09 02:48:02;;;;;;;5.67;1.67;;;;;;;22.29;100.00;100193.88;1688848;83;21096;-64
2022/08/09 02:50:44;;;;;;;2.72;2.05;;;;;;;22.32;100.00;100201.52;1673787;84;21549;-65
2022/08/09 02:53:20;;;;;;;4.03;1.67;;;;;;;22.33;100.00;100202.33;1692756;83;21056;-67
2022/08/09 02:55:47;;;;;;;1.85;1.75;;;;;;;22.34;100.00;100205.34;1686369;85;21636;-68
2022/08/09 02:58:16;;;;;;;2.10;1.90;;;;;;;22.29;100.00;100198.66;1687749;83;21648;-66
2022/08/09 03:00:44;;;;;;;1.70;1.57;;;;;;;22.22;100.00;100200.80;1687759;83;21534;-67
2022/08/09 03:03:13;;;;;;;4.65;1.80;;;;;;;22.23;100.00;100202.41;1689208;83;21069;-66
2022/08/09 03:05:42;;;;;;;2.35;1.57;;;;;;;22.24;100.00;100195.62;1676863;84;21060;-66
2022/08/09 03:08:12;;;;;;;2.90;1.82;;;;;;;22.29;100.00;100195.86;1696562;83;21951;-66
2022/08/09 03:10:46;;;;;;;2.27;1.80;;;;;;;22.29;100.00;100198.66;1695067;83;21044;-67
2022/08/09 03:13:20;;;;;;;3.13;2.43;;;;;;;22.20;100.00;100201.19;1691115;83;21189;-65
2022/08/09 03:15:48;;;;;;;3.37;2.02;;;;;;;22.19;100.00;100197.36;1692545;83;21001;-68
2022/08/09 03:18:17;;;;;;;2.50;1.80;;;;;;;22.16;100.00;100195.33;1693603;83;21016;-65
2022/08/09 03:20:46;;;;;;;2.33;2.00;;;;;;;22.22;100.00;100194.60;1696622;82;21474;-65
2022/08/09 03:23:17;;;;;;;2.45;2.10;;;;;;;22.26;100.00;100194.64;1694873;83;21205;-65
2022/08/09 03:25:44;;;;;;;2.27;1.77;;;;;;;22.35;100.00;100195.72;1695849;83;21070;-69
2022/08/09 03:28:11;;;;;;;2.62;1.80;;;;;;;22.33;100.00;100193.91;1695877;83;21668;-66
2022/08/09 03:30:42;;;;;;;2.70;1.70;;;;;;;22.21;100.00;100203.41;1698080;82;21016;-64
2022/08/09 03:33:09;;;;;;;4.55;1.75;;;;;;;22.25;100.00;100203.65;1691215;83;21528;-67
2022/08/09 03:35:37;;;;;;;2.83;1.80;;;;;;;22.31;100.00;100202.72;1698322;82;21045;-65
2022/08/09 03:38:03;;;;;;;6.42;2.15;;;;;;;22.30;100.00;100207.28;1689299;83;21473;-66
2022/08/09 03:40:31;;;;;;;2.12;1.57;;;;;;;22.30;100.00;100206.70;1693033;83;21005;-65
2022/08/09 03:43:01;;;;;;;3.95;1.70;;;;;;;22.33;100.00;100219.17;1694816;83;21025;-66
2022/08/09 03:45:30;;;;;;;1.77;1.67;;;;;;;22.35;100.00;100218.98;1694566;83;21269;-66
2022/08/09 03:47:58;;;;;;;7.15;1.80;;;;;;;22.35;100.00;100219.57;1694937;83;20989;-65
2022/08/09 03:50:25;;;;;;;2.60;1.70;;;;;;;22.35;100.00;100209.75;1697858;82;21080;-66
2022/08/09 03:52:55;;;;;;;2.25;1.67;;;;;;;22.35;100.00;100213.95;1691083;83;21052;-66
2022/08/09 03:55:23;;;;;;;3.83;1.40;;;;;;;22.37;100.00;100210.99;1678150;84;21041;-66
2022/08/09 03:57:50;;;;;;;2.15;1.70;;;;;;;22.42;100.00;100205.63;1692980;83;21115;-67
2022/08/09 04:00:19;;;;;;;2.98;1.50;;;;;;;22.46;100.00;100214.08;1693672;83;21010;-67
2022/08/09 04:02:47;;;;;;;1.92;1.57;;;;;;;22.53;100.00;100206.33;1689589;83;21092;-65
2022/08/09 04:05:15;;;;;;;1.67;1.57;;;;;;;22.59;100.00;100210.39;1700282;82;21655;-69
2022/08/09 04:07:43;;;;;;;4.20;1.45;;;;;;;22.54;100.00;100203.13;1692953;83;21045;-66
2022/08/09 04:10:12;;;;;;;2.62;1.85;;;;;;;22.54;100.00;100205.12;1690862;83;21044;-72
2022/08/09 04:12:48;;;;;;;2.85;1.60;;;;;;;22.59;100.00;100214.02;1689070;84;21025;-68
2022/08/09 04:15:16;;;;;;;1.50;1.40;;;;;;;22.56;100.00;100202.16;1691045;83;21126;-65
2022/08/09 04:17:49;;;;;;;4.42;1.75;;;;;;;22.60;100.00;100199.38;1687488;83;21031;-65
2022/08/09 04:20:20;;;;;;;2.87;1.57;;;;;;;22.59;100.00;100195.77;1691723;83;21502;-67
2022/08/09 04:22:58;;;;;;;2.12;1.62;;;;;;;22.62;100.00;100199.84;1690654;83;21052;-67
2022/08/09 04:25:26;;;;;;;4.12;1.32;;;;;;;22.59;100.00;100192.14;1690461;82;21009;-66
2022/08/09 04:27:57;;;;;;;1.60;1.30;;;;;;;22.50;100.00;100186.25;1690375;82;21056;-66
2022/08/09 04:30:26;;;;;;;2.12;1.47;;;;;;;22.60;100.00;100184.73;1689864;84;21058;-69
2022/08/09 04:32:54;;;;;;;5.70;1.35;;;;;;;22.56;100.00;100188.70;1690601;83;21048;-69
2022/08/09 04:35:23;;;;;;;1.37;1.20;;;;;;;22.61;100.00;100189.79;1690594;83;21564;-65
2022/08/09 04:37:54;;;;;;;6.60;1.77;;;;;;;22.65;100.00;100186.43;1690855;83;21033;-67
2022/08/09 04:40:46;;;;;;;1.20;1.10;;;;;;;22.67;100.00;100184.02;1695067;83;21731;-66
2022/08/09 04:42:54;;;;;;;2.75;1.90;;;;;;;22.79;100.00;100184.94;1690911;83;20994;-69
2022/08/09 04:45:24;;;;;;;4.33;1.40;;;;;;;22.83;100.00;100185.76;1689604;83;21005;-67
2022/08/09 04:47:52;;;;;;;2.10;1.57;;;;;;;22.90;100.00;100187.81;1688610;83;21119;-65
2022/08/09 04:50:23;;;;;;;1.22;1.10;;;;;;;23.00;100.00;100184.28;1691509;82;21072;-67
2022/08/09 04:52:50;;;;;;;4.50;1.20;;;;;;;22.92;100.00;100184.03;1690950;83;21004;-66
2022/08/09 04:55:18;;;;;;;5.17;1.25;;;;;;;23.01;100.00;100180.89;1690600;83;21119;-66
2022/08/09 04:57:45;;;;;;;3.25;1.20;;;;;;;23.10;100.00;100177.94;1691017;83;21049;-68
2022/08/09 05:00:15;;;;;;;3.25;1.10;;;;;;;23.15;100.00;100180.98;1689855;83;21116;-66
2022/08/09 05:02:43;;;;;;;1.25;1.10;;;;;;;23.30;100.00;100181.88;1688912;83;21040;-67
2022/08/09 05:05:17;;;;;;;6.33;1.37;;;;;;;23.28;100.00;100178.67;1689065;83;21068;-67
2022/08/09 05:07:48;;;;;;;1.30;1.00;;;;;;;23.33;100.00;100176.89;1689828;83;21037;-78
2022/08/09 05:10:17;;;;;;;2.33;1.00;;;;;;;23.35;100.00;100170.88;1692585;83;21000;-68
2022/08/09 05:12:49;;;;;;;1.10;1.00;;;;;;;23.49;100.00;100174.38;1689899;83;21144;-67
2022/08/09 05:15:18;;;;;;;1.72;0.93;;;;;;;23.43;100.00;100172.56;1689088;83;21006;-71
2022/08/09 05:17:46;;;;;;;1.27;1.07;;;;;;;23.47;100.00;100168.36;1689522;84;21017;-69
2022/08/09 05:20:14;;;;;;;3.02;1.05;;;;;;;23.54;100.00;100172.59;1690353;83;22150;-66
2022/08/09 05:22:45;;;;;;;2.08;1.10;;;;;;;23.54;100.00;100174.00;1682081;84;21655;-67
2022/08/09 05:25:15;;;;;;;5.25;1.20;;;;;;;23.55;100.00;100176.22;1690572;84;22117;-68
2022/08/09 05:27:41;;;;;;;3.50;1.00;;;;;;;23.73;100.00;100173.48;1689014;83;21131;-71
2022/08/09 05:30:10;;;;;;;2.70;1.30;;;;;;;23.71;100.00;100171.69;1686080;82;20989;-67
2022/08/09 05:32:39;;;;;;;1.98;1.00;;;;;;;23.73;100.00;100174.89;1686278;84;21073;-66
2022/08/09 05:35:10;;;;;;;3.65;1.10;;;;;;;23.75;100.00;100173.90;1688762;83;21052;-70
2022/08/09 05:37:39;;;;;;;1.30;1.20;;;;;;;23.81;100.00;100177.15;1692217;83;20989;-64
2022/08/09 05:40:06;;;;;;;1.60;1.20;;;;;;;23.81;100.00;100173.75;1690099;84;21041;-66
2022/08/09 05:42:36;;;;;;;3.62;1.12;;;;;;;23.75;100.00;100179.53;1686102;84;21350;-66
2022/08/09 05:45:08;;;;;;;3.85;0.93;;;;;;;23.86;100.00;100176.77;1690246;83;21099;-66
2022/08/09 05:47:41;;;;;;;4.58;1.17;;;;;;;23.88;100.00;100180.59;1689822;83;21095;-68
2022/08/09 05:50:08;;;;;;;3.85;1.82;;;;;;;23.90;100.00;100190.23;1677927;84;21327;-67
2022/08/09 05:52:36;;;;;;;1.90;0.80;;;;;;;23.95;100.00;100191.25;1689210;83;21517;-74
2022/08/09 05:55:08;;;;;;;1.37;0.93;;;;;;;24.03;100.00;100190.70;1691412;83;21061;-68
2022/08/09 05:57:37;;;;;;;8.23;1.07;;;;;;;24.04;100.00;100184.45;1692001;83;21537;-67
2022/08/09 06:00:09;;;;;;;8.18;1.95;;;;;;;24.18;100.00;100189.34;1690437;83;21518;-70
2022/08/09 06:02:41;;;;;;;3.27;0.82;;;;;;;24.22;100.00;100180.92;1691733;84;21882;-67
2022/08/09 06:05:12;;;;;;;5.45;1.15;;;;;;;24.29;100.00;100182.34;1687294;82;20997;-65
2022/08/09 06:07:44;;;;;;;2.20;1.20;;;;;;;24.34;100.00;100183.95;1688862;83;21564;-66
2022/08/09 06:10:14;;;;;;;1.85;1.10;;;;;;;24.40;100.00;100183.16;1691895;84;21093;-69
2022/08/09 06:12:43;;;;;;;2.45;1.50;;;;;;;24.53;100.00;100186.39;1694106;83;21183;-66
2022/08/09 06:15:10;;;;;;;5.65;1.10;;;;;;;24.50;100.00;100188.60;1693393;83;21143;-68
2022/08/09 06:17:41;;;;;;;1.57;1.17;;;;;;;24.57;100.00;100187.80;1689314;83;22006;-66
2022/08/09 06:20:14;;;;;;;3.95;1.10;;;;;;;24.61;100.00;100187.22;1690118;83;21143;-66
2022/08/09 06:22:43;;;;;;;3.95;1.02;;;;;;;24.69;100.00;100188.02;1690745;84;21544;-67
2022/08/09 06:25:14;;;;;;;6.22;0.95;;;;;;;24.78;100.00;100191.25;1667027;84;21097;-67
2022/08/09 06:27:45;;;;;;;2.47;1.12;;;;;;;24.83;100.00;100186.41;1694173;83;21272;-67
2022/08/09 06:30:12;;;;;;;1.62;1.52;;;;;;;24.91;100.00;100179.59;1695486;83;21063;-65
2022/08/09 06:32:41;;;;;;;5.05;1.00;;;;;;;24.98;100.00;100175.95;1695335;83;21013;-68
2022/08/09 06:35:12;;;;;;;3.27;0.90;;;;;;;25.05;100.00;100174.55;1691390;83;21517;-66
2022/08/09 06:37:39;;;;;;;2.67;1.10;;;;;;;25.16;100.00;100173.13;1699594;83;21500;-67
2022/08/09 06:40:08;;;;;;;2.58;0.93;;;;;;;25.16;100.00;100173.13;1695603;83;21202;-69
2022/08/09 06:42:37;;;;;;;2.77;1.07;;;;;;;25.08;100.00;100162.45;1691201;83;21107;-67
2022/08/09 06:45:08;;;;;;;3.30;1.20;;;;;;;25.03;100.00;100160.86;1691878;84;21524;-68
2022/08/09 06:47:36;;;;;;;4.08;1.17;;;;;;;25.03;100.00;100162.27;1695150;83;21037;-66
2022/08/09 06:50:07;;;;;;;2.02;1.32;;;;;;;24.99;100.00;100170.54;1693406;83;21538;-67
2022/08/09 06:52:44;;;;;;;2.33;1.25;;;;;;;25.06;100.00;100176.14;1707398;83;22335;-68
2022/08/09 06:55:14;;;;;;;11.10;2.22;;;;;;;25.13;100.00;100171.91;1687937;83;21053;-65
2022/08/09 06:57:43;;;;;;;3.40;1.00;;;;;;;25.20;100.00;100185.19;1691289;83;21052;-67
2022/08/09 07:00:14;;;;;;;2.30;1.02;;;;;;;25.25;100.00;100184.78;1694510;81;21032;-68
2022/08/09 07:02:43;;;;;;;1.98;1.02;;;;;;;25.34;100.00;100186.37;1668440;83;21528;-69
2022/08/09 07:05:18;;;;;;;1.70;1.15;;;;;;;25.25;100.00;100187.59;1694983;83;21169;-67
2022/08/09 07:07:56;;;;;;;1.17;0.70;;;;;;;25.25;100.00;100188.20;1690816;83;21560;-67
2022/08/09 07:10:27;;;;;;;1.65;0.80;;;;;;;25.25;100.00;100196.06;1692053;83;21496;-67
2022/08/09 07:12:58;;;;;;;5.85;0.98;;;;;;;25.12;100.00;100190.05;1690111;83;21688;-64
2022/08/09 07:15:27;;;;;;;2.05;1.10;;;;;;;25.04;100.00;100185.01;1690433;83;21087;-65
2022/08/09 07:17:53;;;;;;;6.28;0.95;;;;;;;24.95;100.00;100190.27;1660757;84;21091;-65
2022/08/09 07:20:20;;;;;;;1.40;0.95;;;;;;;24.90;100.00;100192.86;1693069;83;21037;-68
2022/08/09 07:22:47;;;;;;;1.52;1.00;;;;;;;24.96;100.00;100184.81;1693917;83;21087;-67
2022/08/09 07:25:13;;;;;;;1.80;0.82;;;;;;;25.07;100.00;100187.64;1692181;83;21005;-66
2022/08/09 07:27:46;;;;;;;1.95;1.02;;;;;;;25.12;100.00;100185.01;1692775;83;21642;-65
2022/08/09 07:30:21;;;;;;;1.25;0.80;;;;;;;25.20;100.00;100186.59;1693820;83;21952;-65
2022/08/09 07:32:48;;;;;;;2.35;1.00;;;;;;;25.25;100.00;100186.19;1698554;83;21013;-68
2022/08/09 07:35:17;;;;;;;2.17;0.82;;;;;;;25.29;100.00;100187.59;1696668;83;21548;-68
2022/08/09 07:37:47;;;;;;;4.87;1.25;;;;;;;25.35;100.00;100180.95;1692335;83;21081;-64
2022/08/09 07:40:15;;;;;;;5.50;1.70;;;;;;;25.37;100.00;100185.55;1692140;84;21026;-66
2022/08/09 07:42:55;;;;;;;4.00;1.50;;;;;;;25.23;100.00;100187.19;1690111;84;21334;-67
2022/08/09 07:45:27;;;;;;;4.42;1.10;;;;;;;25.14;100.00;100182.00;1692668;82;21485;-66
2022/08/09 07:47:54;;;;;;;4.37;1.12;;;;;;;25.19;100.00;100177.95;1692649;84;21029;-64
2022/08/09 07:50:26;;;;;;;4.78;1.00;;;;;;;25.32;100.00;100183.17;1691911;84;21064;-65
2022/08/09 07:52:54;;;;;;;3.22;0.78;;;;;;;25.36;100.00;100187.59;1689912;84;21146;-64
2022/08/09 07:55:21;;;;;;;2.33;1.00;;;;;;;25.38;100.00;100187.18;1691781;83;21137;-65
2022/08/09 07:57:49;;;;;;;4.60;1.00;;;;;;;25.59;100.00;100189.74;1697852;83;21048;-66
2022/08/09 08:00:24;;;;;;;3.42;1.07;;;;;;;25.55;100.00;100190.34;1693301;84;21592;-65
2022/08/09 08:03:07;;;;;;;3.55;0.80;;;;;;;25.55;100.00;100191.76;1692164;83;21078;-66
2022/08/09 08:05:36;;;;;;;1.30;0.80;;;;;;;25.42;100.00;100192.19;1692321;83;21547;-66
2022/08/09 08:08:03;;;;;;;5.25;0.90;;;;;;;25.36;100.00;100195.23;1693246;83;21127;-70
2022/08/09 08:10:33;;;;;;;1.12;0.70;;;;;;;25.46;100.00;100198.63;1690560;83;21013;-69
2022/08/09 08:12:59;;;;;;;4.83;1.45;;;;;;;25.43;100.00;100198.64;1691621;83;21013;-67
2022/08/09 08:15:30;;;;;;;1.62;0.72;;;;;;;25.41;100.00;100201.87;1690188;83;21064;-66
2022/08/09 08:18:02;;;;;;;2.15;0.78;;;;;;;25.50;100.00;100209.28;1679805;84;21353;-65
2022/08/09 08:20:32;;;;;;;2.58;0.78;;;;;;;25.50;100.00;100214.92;1681043;83;21120;-65
2022/08/09 08:23:04;;;;;;;0.78;0.50;;;;;;;25.72;100.00;100212.69;1690223;84;21002;-65
2022/08/09 08:25:32;;;;;;;2.42;0.70;;;;;;;25.87;100.00;100221.90;1690807;83;21040;-65
2022/08/09 08:28:10;;;;;;;0.80;0.50;;;;;;;25.99;100.00;100215.00;1688363;82;21084;-66
2022/08/09 08:30:38;;;;;;;4.53;0.72;;;;;;;26.04;100.00;100223.64;1690546;84;21036;-65
2022/08/09 08:33:14;;;;;;;0.80;0.60;;;;;;;25.96;100.00;100215.82;1690297;84;21982;-65
2022/08/09 08:35:46;;;;;;;2.25;0.80;;;;;;;26.01;100.00;100215.40;1688012;83;21061;-65
2022/08/09 08:38:12;;;;;;;4.30;1.20;;;;;;;26.00;100.00;100205.30;1690960;83;21044;-67
2022/08/09 08:40:39;;;;;;;2.72;0.60;;;;;;;25.98;100.00;100214.19;1723092;82;21103;-64
2022/08/09 08:43:14;;;;;;;0.80;0.70;;;;;;;25.93;100.00;100212.41;1690202;83;21100;-65
2022/08/09 08:45:50;;;;;;;7.05;1.12;;;;;;;25.88;100.00;100206.56;1680732;85;21260;-65
2022/08/09 08:48:17;;;;;;;0.90;0.78;;;;;;;25.81;100.00;100198.94;1695975;83;21024;-66
2022/08/09 08:50:49;;;;;;;2.33;1.05;;;;;;;25.82;100.00;100197.73;1698093;82;20980;-65
2022/08/09 08:53:19;;;;;;;0.95;0.65;;;;;;;25.79;100.00;100191.52;1689691;83;21057;-66
2022/08/09 08:55:47;;;;;;;0.80;0.80;;;;;;;25.67;100.00;100197.00;1689641;83;21367;-65
2022/08/09 08:58:13;;;;;;;1.30;0.88;;;;;;;25.61;100.00;100195.76;1689364;83;21487;-65
2022/08/09 09:00:43;;;;;;;2.45;1.12;;;;;;;25.57;100.00;100197.20;1691609;82;21021;-66
2022/08/09 09:03:16;;;;;;;1.25;0.60;;;;;;;25.49;99.35;100192.77;1663491;84;21048;-65
2022/08/09 09:05:44;;;;;;;1.95;0.90;;;;;;;25.36;100.00;100192.41;1691488;83;21033;-66
2022/08/09 09:08:13;;;;;;;2.37;1.30;;;;;;;25.31;100.00;100183.77;1687965;83;21055;-66
2022/08/09 09:10:44;;;;;;;4.45;1.87;;;;;;;25.39;100.00;100183.14;1689436;83;21111;-67
2022/08/09 09:13:16;;;;;;;2.92;1.42;;;;;;;25.48;99.80;100180.71;1689521;83;21293;-65
2022/08/09 09:15:43;;;;;;;2.25;1.20;;;;;;;25.48;99.52;100182.72;1690693;83;21525;-66
2022/08/09 09:18:17;;;;;;;4.03;0.82;;;;;;;25.41;100.00;100182.13;1729598;82;21088;-65
2022/08/09 09:20:47;;;;;;;1.80;0.80;;;;;;;25.39;100.00;100181.73;1690742;83;21080;-67
2022/08/09 09:23:19;;;;;;;2.15;0.80;;;;;;;25.26;100.00;100186.41;1684099;83;21148;-65
2022/08/09 09:25:47;;;;;;;0.93;0.70;;;;;;;25.15;100.00;100182.78;1685464;83;21180;-64
2022/08/09 09:28:18;;;;;;;0.90;0.80;;;;;;;25.03;100.00;100187.64;1663499;85;21565;-65
2022/08/09 09:30:55;;;;;;;3.22;1.15;;;;;;;25.00;100.00;100177.17;1629139;83;21080;-64
2022/08/09 09:33:36;;;;;;;3.10;0.85;;;;;;;25.16;100.00;100187.23;1690536;83;21030;-65
2022/08/09 09:36:06;;;;;;;2.58;0.72;;;;;;;25.19;100.00;100187.01;1690760;83;21115;-65
2022/08/09 09:38:55;;;;;;;3.22;0.93;;;;;;;25.32;100.00;100183.17;1688035;84;21056;-66
2022/08/09 09:41:27;;;;;;;1.47;0.90;;;;;;;25.30;100.00;100179.33;1681165;83;21583;-66
2022/08/09 09:43:57;;;;;;;3.45;0.85;;;;;;;25.32;100.00;100184.58;1687826;83;21040;-65
2022/08/09 09:46:36;;;;;;;1.50;0.90;;;;;;;25.32;100.00;100181.14;1694573;83;21181;-65
2022/08/09 09:49:10;;;;;;;1.52;0.72;;;;;;;25.34;100.00;100180.13;1690761;81;21093;-67
2022/08/09 09:51:40;;;;;;;4.62;0.90;;;;;;;25.48;100.00;100181.30;1688761;83;21112;-67
2022/08/09 09:54:11;;;;;;;3.00;1.00;;;;;;;25.59;100.00;100182.69;1690663;83;21084;-65
2022/08/09 09:56:43;;;;;;;2.70;0.90;;;;;;;25.70;100.00;100183.48;1692892;83;21040;-66
2022/08/09 09:59:11;;;;;;;3.83;0.90;;;;;;;25.81;100.00;100182.63;1689049;83;21080;-66
2022/08/09 10:01:41;;;;;;;5.10;0.85;;;;;;;25.89;100.00;100178.56;1689507;82;21425;-66
2022/08/09 10:04:19;;;;;;;1.20;0.90;;;;;;;25.93;100.00;100187.80;1688812;84;20993;-66
2022/08/09 10:06:47;;;;;;;0.98;0.70;;;;;;;25.91;100.00;100180.97;1687069;83;21056;-65
2022/08/09 10:09:19;;;;;;;2.00;0.78;;;;;;;25.91;100.00;100186.02;1686948;83;21041;-66
2022/08/09 10:11:57;;;;;;;4.03;1.00;;;;;;;25.89;100.00;100176.55;1694251;83;21088;-67
2022/08/09 10:14:28;;;;;;;6.47;0.85;;;;;;;25.80;100.00;100175.36;1690724;83;21859;-70
2022/08/09 10:16:58;;;;;;;1.27;0.72;;;;;;;25.80;100.00;100178.19;1696325;83;21588;-65
2022/08/09 10:19:39;;;;;;;0.95;0.65;;;;;;;25.76;100.00;100168.35;1698152;83;21032;-65
2022/08/09 10:22:06;;;;;;;4.55;0.98;;;;;;;25.82;100.00;100171.53;1693943;83;21556;-65
2022/08/09 10:24:34;;;;;;;1.80;0.70;;;;;;;25.93;100.00;100176.51;1695380;83;21029;-68
2022/08/09 10:27:09;;;;;;;6.05;1.30;;;;;;;26.16;100.00;100163.90;1695259;83;21021;-67
2022/08/09 10:29:43;;;;;;;5.28;1.02;;;;;;;26.31;100.00;100163.19;1670973;84;21050;-66
2022/08/09 10:32:12;;;;;;;3.37;0.60;;;;;;;26.39;100.00;100168.23;1659373;85;21113;-66
2022/08/09 10:34:39;;;;;;;5.28;1.40;;;;;;;26.21;100.00;100163.46;1685645;83;21123;-65
2022/08/09 10:37:08;;;;;;;1.57;0.60;;;;;;;26.23;100.00;100161.03;1703425;82;21042;-65
2022/08/09 10:39:39;;;;;;;1.47;0.82;;;;;;;26.18;100.00;100160.66;1678358;83;21991;-65
2022/08/09 10:42:12;;;;;;;2.83;1.20;;;;;;;26.15;100.00;100157.25;1697098;83;21009;-65
2022/08/09 10:44:40;;;;;;;2.05;1.27;;;;;;;25.98;98.31;100166.83;1696283;83;21056;-69
2022/08/09 10:47:47;;;;;;;5.35;1.02;;;;;;;25.77;99.24;100168.54;1697669;83;21595;-67
2022/08/09 10:51:05;;;;;;;3.30;0.90;;;;;;;25.50;100.00;100161.34;1695588;83;21032;-66
2022/08/09 10:53:28;;;;;;;5.90;0.90;;;;;;;25.43;100.00;100169.03;1685457;83;21088;-68
2022/08/09 10:56:21;;;;;;;1.92;0.70;;;;;;;25.42;100.00;100163.98;1692209;84;21044;-69
2022/08/09 10:58:51;;;;;;;2.30;0.70;;;;;;;25.42;100.00;100162.58;1691500;84;21041;-65
2022/08/09 11:01:41;;;;;;;4.47;0.80;;;;;;;25.56;100.00;100164.55;1694672;82;21001;-66
2022/08/09 11:04:14;;;;;;;1.85;0.75;;;;;;;25.72;100.00;100162.72;1680464;83;21092;-66
2022/08/09 11:06:45;;;;;;;2.95;0.80;;;;;;;25.56;98.02;100156.09;1696686;83;21122;-66
2022/08/09 11:09:18;;;;;;;0.65;0.62;;;;;;;25.51;100.00;100149.46;1696284;83;21053;-64
2022/08/09 11:12:03;;;;;;;3.22;0.70;;;;;;;25.65;100.00;100162.75;1695044;83;21037;-65
2022/08/09 11:14:54;;;;;;;2.50;0.90;;;;;;;25.68;100.00;100150.64;1693989;83;21060;-65
2022/08/09 11:17:27;;;;;;;2.87;0.80;;;;;;;25.72;92.27;100150.62;1691560;83;21083;-66
2022/08/09 11:20:09;;;;;;;1.02;0.60;;;;;;;25.56;88.59;100146.22;1696256;83;21041;-68
2022/08/09 11:22:55;;;;;;;1.70;0.90;;;;;;;25.62;90.56;100149.44;1690494;83;21134;-66
2022/08/09 11:25:35;;;;;;;1.15;0.98;;;;;;;25.58;85.91;100152.27;1696003;83;21044;-67
2022/08/09 11:28:32;;;;;;;1.35;0.98;;;;;;;25.57;89.73;100146.44;1695428;83;21024;-66
2022/08/09 11:31:16;;;;;;;3.25;0.82;;;;;;;25.61;88.37;100147.21;1663810;85;21134;-67
2022/08/09 11:33:47;;;;;;;2.45;0.90;;;;;;;25.65;89.12;100154.28;1629919;86;21235;-67
2022/08/09 11:36:25;;;;;;;1.22;0.72;;;;;;;25.75;90.62;100146.38;1642078;85;21100;-67
2022/08/09 11:39:10;;;;;;;1.30;0.72;;;;;;;25.86;92.79;100152.58;1693590;83;21173;-65